METAR AND TAF INFORMATION
METAR FOR SAVC
ADDS - METARS form results

(0706 UTC 20 April 2018)
Data provider http://aviationweather.gov/adds/metars/
 
METAR text: SAVC 200700Z 32009KT CAVOK 16/09 Q1002
Conditions at: SAVC (COMODORO RIVADAV, AR) observed 0700 UTC 20 April 2018
Temperature: 16.0°C (61°F)
Dewpoint: 9.0°C (48°F) [RH = 63%]
Pressure (altimeter): 29.59 inches Hg (1002.0 mb)
Winds: from the NW (320 degrees) at 10 MPH (9 knots; 4.7 m/s)
Visibility: 6 or more miles (10+ km)
Ceiling: ceiling and visibility are OK
Clouds: unknown
Weather: no significant weather observed at this time

Forecast for: SAVC (COMODORO RIVADAV, AR)
Text: TAF SAVC 200500Z 2006/2106 29015KT 9999 SCT045 TX22/2018Z TN15/2011Z
Forecast period: 0600 to 1200 UTC 20 April 2018
Forecast type: FROM: standard forecast or significant change
Winds: from the WNW (290 degrees) at 17 MPH (15 knots; 7.8 m/s)
Visibility: 6 or more miles (10+ km)
Clouds: scattered clouds at 4500 feet AGL
Weather: no significant weather forecast for this period
Forecast for: SAVC (COMODORO RIVADAV, AR)
Text: TAF SAVC 200500Z 2006/2106 29015KT 9999 SCT045 TX22/2018Z TN15/2011Z
Forecast period: 0600 to 1200 UTC 20 April 2018
Forecast type: FROM: standard forecast or significant change
Winds: from the WNW (290 degrees) at 17 MPH (15 knots; 7.8 m/s)
Visibility: 6 or more miles (10+ km)
Clouds: scattered clouds at 4500 feet AGL
Weather: no significant weather forecast for this period
Forecast for: SAVC (COMODORO RIVADAV, AR)
Text: TAF SAVC 200500Z 2006/2106 29015KT 9999 SCT045 TX22/2018Z TN15/2011Z
Forecast period: 1200 to 1600 UTC 20 April 2018
Forecast type: BECOMING: Conditions expected to become as follows by 1400 UTC 20 April 2018
Winds: from the WNW (300 degrees) at 23 MPH (20 knots; 10.4 m/s)
gusting to 34 MPH (30 knots; 15.6 m/s)
Visibility: 6 or more miles (10+ km)
Clouds: scattered clouds at 4500 feet AGL
Weather: no significant weather forecast for this period
Forecast for: SAVC (COMODORO RIVADAV, AR)
Text: TAF SAVC 200500Z 2006/2106 29015KT 9999 SCT045 TX22/2018Z TN15/2011Z
Forecast period: 1200 to 1600 UTC 20 April 2018
Forecast type: BECOMING: Conditions expected to become as follows by 1400 UTC 20 April 2018
Winds: from the WNW (300 degrees) at 23 MPH (20 knots; 10.4 m/s)
gusting to 34 MPH (30 knots; 15.6 m/s)
Visibility: 6 or more miles (10+ km)
Clouds: scattered clouds at 4500 feet AGL
Weather: no significant weather forecast for this period
Forecast for: SAVC (COMODORO RIVADAV, AR)
Text: TAF SAVC 200500Z 2006/2106 29015KT 9999 SCT045 TX22/2018Z TN15/2011Z
Forecast period: 1600 UTC 20 April 2018 to 0000 UTC 21 April 2018
Forecast type: BECOMING: Conditions expected to become as follows by 1800 UTC 20 April 2018
Winds: from the WNW (300 degrees) at 29 MPH (25 knots; 13.0 m/s)
gusting to 46 MPH (40 knots; 20.8 m/s)
Visibility: 6 or more miles (10+ km)
Clouds: scattered clouds at 4500 feet AGL
Weather: no significant weather forecast for this period
Forecast for: SAVC (COMODORO RIVADAV, AR)
Text: TAF SAVC 200500Z 2006/2106 29015KT 9999 SCT045 TX22/2018Z TN15/2011Z
Forecast period: 1600 UTC 20 April 2018 to 0000 UTC 21 April 2018
Forecast type: BECOMING: Conditions expected to become as follows by 1800 UTC 20 April 2018
Winds: from the WNW (300 degrees) at 29 MPH (25 knots; 13.0 m/s)
gusting to 46 MPH (40 knots; 20.8 m/s)
Visibility: 6 or more miles (10+ km)
Clouds: scattered clouds at 4500 feet AGL
Weather: no significant weather forecast for this period
Forecast for: SAVC (COMODORO RIVADAV, AR)
Text: TAF SAVC 200500Z 2006/2106 29015KT 9999 SCT045 TX22/2018Z TN15/2011Z
Forecast period: 0000 to 0600 UTC 21 April 2018
Forecast type: BECOMING: Conditions expected to become as follows by 0200 UTC 21 April 2018
Winds: from the NW (320 degrees) at 17 MPH (15 knots; 7.8 m/s)
Visibility: 6 or more miles (10+ km)
Clouds: scattered clouds at 4500 feet AGL
Weather: no significant weather forecast for this period
Forecast for: SAVC (COMODORO RIVADAV, AR)
Text: TAF SAVC 200500Z 2006/2106 29015KT 9999 SCT045 TX22/2018Z TN15/2011Z
Forecast period: 0000 to 0600 UTC 21 April 2018
Forecast type: BECOMING: Conditions expected to become as follows by 0200 UTC 21 April 2018
Winds: from the NW (320 degrees) at 17 MPH (15 knots; 7.8 m/s)
Visibility: 6 or more miles (10+ km)
Clouds: scattered clouds at 4500 feet AGL
Weather: no significant weather forecast for this period

 AIRPORT MAP

 RUNWAY INFORMATION
Runway 7 Runway length 9219 ft Runway width 164 ft
Runway elevation 189 ft Runway displaced threshold 0 ft Runway heading 79
Runway 25 Runway length 9219 ft Runway width 164 ft
Runway elevation 105 ft Runway displaced threshold 0 ft Runway heading 259

 AIRPORT FREQUENCIES
Type ARR Name COMODORO C Frequency 124.3 MHZ
Type TWR Name COMODORO T Frequency 119.9 MHZ

 AIRPORT NEAR NAVIGATION AIDS
Type NDB Name Comodoro Rivadavia Frequency 280 KHZ
Type VOR-DME Name Comodoro Rivadavia Frequency 117500 KHZ
Type NDB Name Comodoro Rivadavia Frequency 260 KHZ



Powered by Virtual Airlines Manager [v2.6.2]